createdAt,value
2019-01-14T00:00:14.179Z,6.21
2019-01-14T00:02:41.634Z,6.27
2019-01-14T00:05:09.145Z,6.27
2019-01-14T00:07:37.474Z,6.35
2019-01-14T00:10:04.990Z,6.23
2019-01-14T00:12:32.496Z,6.22
2019-01-14T00:14:59.977Z,6.23
2019-01-14T00:17:27.433Z,6.26
2019-01-14T00:19:54.891Z,6.26
2019-01-14T00:22:22.349Z,6.28
2019-01-14T00:24:49.835Z,6.15
2019-01-14T00:27:17.313Z,6.24
2019-01-14T00:29:44.774Z,6.23
2019-01-14T00:32:12.234Z,6.32
2019-01-14T00:34:39.671Z,6.19
2019-01-14T00:37:07.140Z,6.22
2019-01-14T00:39:34.583Z,6.23
2019-01-14T00:42:02.025Z,6.20
2019-01-14T00:44:29.462Z,6.24
2019-01-14T00:46:56.877Z,6.19
2019-01-14T00:49:24.314Z,6.29
2019-01-14T00:51:52.074Z,6.20
2019-01-14T00:54:21.388Z,6.34
2019-01-14T00:56:48.893Z,6.15
2019-01-14T00:59:16.554Z,6.22
2019-01-14T01:01:44.089Z,6.25
2019-01-14T01:04:11.529Z,6.19
2019-01-14T01:06:39.780Z,6.22
2019-01-14T01:09:07.411Z,6.34
2019-01-14T01:11:34.986Z,6.26
2019-01-14T01:14:02.874Z,6.38
2019-01-14T01:16:30.379Z,6.17
2019-01-14T01:18:58.717Z,6.06
2019-01-14T01:21:26.186Z,6.03
2019-01-14T01:23:53.631Z,6.27
2019-01-14T01:26:21.193Z,6.11
2019-01-14T01:28:48.663Z,6.21
2019-01-14T01:31:16.677Z,6.36
2019-01-14T01:33:44.467Z,5.99
2019-01-14T01:36:11.945Z,6.30
2019-01-14T01:38:39.396Z,6.12
2019-01-14T01:41:06.871Z,6.01
2019-01-14T01:43:34.490Z,6.08
2019-01-14T01:46:01.955Z,6.03
2019-01-14T01:48:29.363Z,5.94
2019-01-14T01:50:56.861Z,6.22
2019-01-14T01:53:24.285Z,6.10
2019-01-14T01:55:51.736Z,6.32
2019-01-14T01:58:19.195Z,6.18
2019-01-14T02:00:47.034Z,6.17
2019-01-14T02:03:14.455Z,5.99
2019-01-14T02:05:41.906Z,5.80
2019-01-14T02:08:09.338Z,6.19
2019-01-14T02:10:36.790Z,6.12
2019-01-14T02:13:04.251Z,6.14
2019-01-14T02:15:32.827Z,6.16
2019-01-14T02:18:00.359Z,5.99
2019-01-14T02:20:27.807Z,5.96
2019-01-14T02:22:56.227Z,6.18
2019-01-14T02:25:22.727Z,6.47
2019-01-14T02:27:50.165Z,6.26
2019-01-14T02:30:17.601Z,6.09
2019-01-14T02:32:45.069Z,6.08
2019-01-14T02:35:12.479Z,5.93
2019-01-14T02:37:39.927Z,5.95
2019-01-14T02:40:08.929Z,6.20
2019-01-14T02:42:36.374Z,6.12
2019-01-14T02:45:03.846Z,6.09
2019-01-14T02:47:31.276Z,6.12
2019-01-14T02:49:59.575Z,6.40
2019-01-14T02:52:27.123Z,6.17
2019-01-14T02:54:54.537Z,6.07
2019-01-14T02:57:21.951Z,6.03
2019-01-14T02:59:49.409Z,6.14
2019-01-14T03:02:17.874Z,6.30
2019-01-14T03:04:45.322Z,6.15
2019-01-14T03:07:12.762Z,6.34
2019-01-14T03:09:40.184Z,6.26
2019-01-14T03:12:07.602Z,6.54
2019-01-14T03:14:35.090Z,6.07
2019-01-14T03:17:02.522Z,6.51
2019-01-14T03:19:29.970Z,6.14
2019-01-14T03:21:57.465Z,6.07
2019-01-14T03:24:25.783Z,5.98
2019-01-14T03:26:53.290Z,5.98
2019-01-14T03:29:20.735Z,6.11
2019-01-14T03:31:48.176Z,5.95
2019-01-14T03:34:15.607Z,5.98
2019-01-14T03:36:44.552Z,5.83
2019-01-14T03:39:12.071Z,5.96
2019-01-14T03:41:39.505Z,6.03
2019-01-14T03:44:06.939Z,5.92
2019-01-14T03:46:34.385Z,6.20
2019-01-14T03:49:03.363Z,6.22
2019-01-14T03:51:30.825Z,6.21
2019-01-14T03:53:58.250Z,6.46
2019-01-14T03:56:25.689Z,6.25
2019-01-14T03:58:53.156Z,6.34
2019-01-14T04:01:20.627Z,6.27
2019-01-14T04:03:48.075Z,6.36
2019-01-14T04:06:15.503Z,6.03
2019-01-14T04:08:44.246Z,6.40
2019-01-14T04:11:11.969Z,6.33
2019-01-14T04:13:39.481Z,6.54
2019-01-14T04:16:06.903Z,6.72
2019-01-14T04:18:34.334Z,6.29
2019-01-14T04:21:01.765Z,5.86
2019-01-14T04:23:29.222Z,5.97
2019-01-14T04:25:56.641Z,6.20
2019-01-14T04:28:24.089Z,6.00
2019-01-14T04:30:51.510Z,5.99
2019-01-14T04:33:18.963Z,6.45
2019-01-14T04:35:46.397Z,6.28
2019-01-14T04:38:13.867Z,6.34
2019-01-14T04:40:41.302Z,6.03
2019-01-14T04:43:09.303Z,6.34
2019-01-14T04:45:36.735Z,6.33
2019-01-14T04:48:04.187Z,6.11
2019-01-14T04:50:31.663Z,6.04
2019-01-14T04:52:59.108Z,6.07
2019-01-14T04:55:26.560Z,6.20
2019-01-14T04:57:53.995Z,6.50
2019-01-14T05:00:21.451Z,6.13
2019-01-14T05:02:48.879Z,6.62
2019-01-14T05:05:16.346Z,6.73
2019-01-14T05:07:43.790Z,6.36
2019-01-14T05:10:18.882Z,6.44
2019-01-14T05:12:46.381Z,6.83
2019-01-14T05:15:13.842Z,6.95
2019-01-14T05:17:41.262Z,6.92
2019-01-14T05:20:09.670Z,6.77
2019-01-14T05:22:37.148Z,6.67
2019-01-14T05:25:04.595Z,7.01
2019-01-14T05:27:32.016Z,6.87
2019-01-14T05:29:59.461Z,6.39
2019-01-14T05:32:26.931Z,6.06
2019-01-14T05:34:55.336Z,6.21
2019-01-14T05:37:22.854Z,6.31
2019-01-14T05:39:50.286Z,6.35
2019-01-14T05:42:17.767Z,6.38
2019-01-14T05:44:45.191Z,6.50
2019-01-14T05:47:12.620Z,6.50
2019-01-14T05:49:40.078Z,6.07
2019-01-14T05:52:07.523Z,6.45
2019-01-14T05:54:34.946Z,6.53
2019-01-14T05:57:03.242Z,6.73
2019-01-14T05:59:30.684Z,6.36
2019-01-14T06:01:58.136Z,6.28
2019-01-14T06:04:25.597Z,6.52
2019-01-14T06:06:53.057Z,6.48
2019-01-14T06:09:20.491Z,6.03
2019-01-14T06:11:47.983Z,6.45
2019-01-14T06:14:15.401Z,6.27
2019-01-14T06:16:42.849Z,6.09
2019-01-14T06:19:10.305Z,6.11
2019-01-14T06:21:37.753Z,6.59
2019-01-14T06:24:05.186Z,6.35
2019-01-14T06:26:32.637Z,6.19
2019-01-14T06:29:00.061Z,6.00
2019-01-14T06:31:28.109Z,5.92
2019-01-14T06:33:55.552Z,6.23
2019-01-14T06:36:22.968Z,5.92
2019-01-14T06:38:50.450Z,6.41
2019-01-14T06:41:17.896Z,6.40
2019-01-14T06:43:45.391Z,6.27
2019-01-14T06:46:12.816Z,6.21
2019-01-14T06:48:40.322Z,6.58
2019-01-14T06:51:07.778Z,6.52
2019-01-14T06:53:35.207Z,6.37
2019-01-14T06:56:03.241Z,6.15
2019-01-14T06:58:30.727Z,5.92
2019-01-14T07:00:58.251Z,6.16
2019-01-14T07:03:25.732Z,5.74
2019-01-14T07:05:53.175Z,5.76
2019-01-14T07:08:20.601Z,5.78
2019-01-14T07:10:48.062Z,5.97
2019-01-14T07:13:15.491Z,5.90
2019-01-14T07:15:42.936Z,5.97
2019-01-14T07:18:10.392Z,5.75
2019-01-14T07:20:37.798Z,5.35
2019-01-14T07:23:05.241Z,5.52
2019-01-14T07:25:32.675Z,5.84
2019-01-14T07:28:00.171Z,5.59
2019-01-14T07:30:27.661Z,5.49
2019-01-14T07:32:55.123Z,5.04
2019-01-14T07:35:22.574Z,5.36
2019-01-14T07:37:49.997Z,5.69
2019-01-14T07:40:17.461Z,5.52
2019-01-14T07:42:44.932Z,5.27
2019-01-14T07:45:12.405Z,5.47
2019-01-14T07:47:39.849Z,5.48
2019-01-14T07:50:07.275Z,5.46
2019-01-14T07:52:35.323Z,4.87
2019-01-14T07:55:02.798Z,4.69
2019-01-14T07:57:30.244Z,5.40
2019-01-14T07:59:57.686Z,5.46
2019-01-14T08:02:25.141Z,4.74
2019-01-14T08:04:52.557Z,5.27
2019-01-14T08:07:20.264Z,5.21
2019-01-14T08:09:47.706Z,4.81
2019-01-14T08:12:15.171Z,5.20
2019-01-14T08:14:42.827Z,5.23
2019-01-14T08:17:10.117Z,4.81
2019-01-14T08:19:37.582Z,5.20
2019-01-14T08:22:05.030Z,4.78
2019-01-14T08:24:32.485Z,5.09
2019-01-14T08:26:59.979Z,5.02
2019-01-14T08:29:27.429Z,5.19
2019-01-14T08:31:54.919Z,5.01
2019-01-14T08:34:22.390Z,4.76
2019-01-14T08:36:50.432Z,4.81
2019-01-14T08:39:17.871Z,4.87
2019-01-14T08:41:45.279Z,5.02
2019-01-14T08:44:12.740Z,4.99
2019-01-14T08:46:40.198Z,4.78
2019-01-14T08:49:08.443Z,5.00
2019-01-14T08:51:36.001Z,5.18
2019-01-14T08:54:03.435Z,4.95
2019-01-14T08:56:30.854Z,4.64
2019-01-14T08:58:58.301Z,4.96
2019-01-14T09:01:25.766Z,5.01
2019-01-14T09:03:53.223Z,4.88
2019-01-14T09:06:20.654Z,4.90
2019-01-14T09:08:48.090Z,4.90
2019-01-14T09:11:15.530Z,4.80
2019-01-14T09:13:42.998Z,4.58
2019-01-14T09:16:10.435Z,4.81
2019-01-14T09:18:37.895Z,4.84
2019-01-14T09:21:05.327Z,4.68
2019-01-14T09:23:32.780Z,4.67
2019-01-14T09:26:00.234Z,4.61
2019-01-14T09:28:27.722Z,4.89
2019-01-14T09:30:55.167Z,4.77
2019-01-14T09:33:22.603Z,5.19
2019-01-14T09:35:50.907Z,4.75
2019-01-14T09:38:18.333Z,5.15
2019-01-14T09:40:45.771Z,5.25
2019-01-14T09:43:13.212Z,5.21
2019-01-14T09:45:40.690Z,4.99
2019-01-14T09:48:08.171Z,4.91
2019-01-14T09:50:35.636Z,5.19
2019-01-14T09:53:03.058Z,5.00
2019-01-14T09:55:30.547Z,5.10
2019-01-14T09:57:58.012Z,5.06
2019-01-14T10:00:25.455Z,5.45
2019-01-14T10:02:55.599Z,5.22
2019-01-14T10:05:21.256Z,5.26
2019-01-14T10:07:48.722Z,5.21
2019-01-14T10:10:16.160Z,5.01
2019-01-14T10:12:43.638Z,4.99
2019-01-14T10:15:12.537Z,5.12
2019-01-14T10:17:39.976Z,5.18
2019-01-14T10:20:07.464Z,5.56
2019-01-14T10:22:34.964Z,5.44
2019-01-14T10:25:02.442Z,5.36
2019-01-14T10:27:29.896Z,5.42
2019-01-14T10:29:57.349Z,4.97
2019-01-14T10:32:25.840Z,5.03
2019-01-14T10:34:54.307Z,5.38
2019-01-14T10:37:23.023Z,5.63
2019-01-14T10:39:51.412Z,5.22
2019-01-14T10:42:20.143Z,5.41
2019-01-14T10:44:48.628Z,5.22
2019-01-14T10:47:17.039Z,5.42
2019-01-14T10:49:45.555Z,5.16
2019-01-14T10:52:14.209Z,5.29
2019-01-14T10:54:42.739Z,5.21
2019-01-14T10:57:11.310Z,5.09
2019-01-14T10:59:39.797Z,5.00
2019-01-14T11:02:08.404Z,5.20
2019-01-14T11:04:36.812Z,5.30
2019-01-14T11:07:05.407Z,5.36
2019-01-14T11:09:33.865Z,5.16
2019-01-14T11:12:02.407Z,5.29
2019-01-14T11:14:30.986Z,5.26
2019-01-14T11:16:58.550Z,5.40
2019-01-14T11:19:25.979Z,5.64
2019-01-14T11:21:53.429Z,5.42
2019-01-14T11:24:20.877Z,5.58
2019-01-14T11:26:48.326Z,5.70
2019-01-14T11:29:15.798Z,5.54
2019-01-14T11:31:43.254Z,5.66
2019-01-14T11:34:10.738Z,5.25
2019-01-14T11:36:38.162Z,5.42
2019-01-14T11:39:05.621Z,5.43
2019-01-14T11:41:33.106Z,5.82
2019-01-14T11:44:00.581Z,5.54
2019-01-14T11:46:28.817Z,5.46
2019-01-14T11:48:56.355Z,5.13
2019-01-14T11:51:24.786Z,5.25
2019-01-14T11:53:52.963Z,5.17
2019-01-14T11:56:20.395Z,5.38
2019-01-14T11:58:47.891Z,5.21
2019-01-14T12:01:15.324Z,5.47
2019-01-14T12:03:42.755Z,5.45
2019-01-14T12:06:10.176Z,5.33
2019-01-14T12:08:37.627Z,5.56
2019-01-14T12:11:05.105Z,5.26
2019-01-14T12:13:32.582Z,5.34
2019-01-14T12:16:00.089Z,5.48
2019-01-14T12:18:27.534Z,5.63
2019-01-14T12:20:54.956Z,5.75
2019-01-14T12:23:23.199Z,5.55
2019-01-14T12:25:50.638Z,5.54
2019-01-14T12:28:18.090Z,5.61
2019-01-14T12:30:45.537Z,5.43
2019-01-14T12:33:12.979Z,5.66
2019-01-14T12:35:40.421Z,5.08
2019-01-14T12:38:07.866Z,5.32
2019-01-14T12:40:35.306Z,5.31
2019-01-14T12:43:02.806Z,5.52
2019-01-14T12:45:30.245Z,5.36
2019-01-14T12:47:57.712Z,5.21
2019-01-14T12:50:25.171Z,5.54
2019-01-14T12:52:53.439Z,5.17
2019-01-14T12:55:22.288Z,5.42
2019-01-14T12:57:49.810Z,5.32
2019-01-14T13:00:18.959Z,5.33
2019-01-14T13:02:46.394Z,5.12
2019-01-14T13:05:13.843Z,5.25
2019-01-14T13:07:41.256Z,5.18
2019-01-14T13:10:08.707Z,5.01
2019-01-14T13:12:36.138Z,5.21
2019-01-14T13:15:03.585Z,4.92
2019-01-14T13:17:31.022Z,5.02
2019-01-14T13:19:58.498Z,4.81
2019-01-14T13:22:25.927Z,5.15
2019-01-14T13:24:53.661Z,5.26
2019-01-14T13:27:21.145Z,5.06
2019-01-14T13:29:48.607Z,4.40
2019-01-14T13:32:16.046Z,4.76
2019-01-14T13:34:44.820Z,4.34
2019-01-14T13:37:10.996Z,4.74
2019-01-14T13:39:38.423Z,4.75
2019-01-14T13:42:07.505Z,4.85
2019-01-14T13:44:34.991Z,5.01
2019-01-14T13:47:02.469Z,4.58
2019-01-14T13:49:29.932Z,4.95
2019-01-14T13:51:57.401Z,4.75
2019-01-14T13:54:24.849Z,4.97
2019-01-14T13:56:52.320Z,5.18
2019-01-14T13:59:19.764Z,4.98
2019-01-14T14:01:47.248Z,4.97
2019-01-14T14:04:14.715Z,5.19
2019-01-14T14:06:42.149Z,4.76
2019-01-14T14:09:09.608Z,4.73
2019-01-14T14:11:37.044Z,4.93
2019-01-14T14:14:04.516Z,4.88
2019-01-14T14:16:32.972Z,4.96
2019-01-14T14:19:00.438Z,5.33
2019-01-14T14:21:27.887Z,5.04
2019-01-14T14:23:55.301Z,5.11
2019-01-14T14:26:22.762Z,4.82
2019-01-14T14:28:50.201Z,5.06
2019-01-14T14:31:17.650Z,5.07
2019-01-14T14:33:45.073Z,4.89
2019-01-14T14:36:12.535Z,5.05
2019-01-14T14:38:40.910Z,4.91
2019-01-14T14:41:08.377Z,5.26
2019-01-14T14:43:35.829Z,5.18
2019-01-14T14:46:03.299Z,5.26
2019-01-14T14:48:30.761Z,5.28
2019-01-14T14:50:58.215Z,4.99
2019-01-14T14:53:25.693Z,5.22
2019-01-14T14:55:53.254Z,5.37
2019-01-14T14:58:20.846Z,4.91
2019-01-14T15:00:48.273Z,4.89
2019-01-14T15:03:15.744Z,4.95
2019-01-14T15:05:44.064Z,5.09
2019-01-14T15:08:11.587Z,4.94
2019-01-14T15:10:39.011Z,4.49
2019-01-14T15:13:06.472Z,4.71
2019-01-14T15:15:33.921Z,4.61
2019-01-14T15:18:01.390Z,4.63
2019-01-14T15:20:28.833Z,4.62
2019-01-14T15:22:56.282Z,4.76
2019-01-14T15:25:24.738Z,4.71
2019-01-14T15:27:52.195Z,4.64
2019-01-14T15:30:20.989Z,4.86
2019-01-14T15:32:48.426Z,4.82
2019-01-14T15:35:15.884Z,4.76
2019-01-14T15:37:43.318Z,5.10
2019-01-14T15:40:10.852Z,4.93
2019-01-14T15:42:38.323Z,5.09
2019-01-14T15:45:05.762Z,5.35
2019-01-14T15:47:33.227Z,5.06
2019-01-14T15:50:00.656Z,4.61
2019-01-14T15:52:28.153Z,4.97
2019-01-14T15:54:55.614Z,5.19
2019-01-14T15:57:23.062Z,5.35
2019-01-14T15:59:50.505Z,5.10
2019-01-14T16:02:17.953Z,4.88
2019-01-14T16:04:45.410Z,5.03
2019-01-14T16:07:12.865Z,5.23
2019-01-14T16:09:40.279Z,5.03
2019-01-14T16:12:07.720Z,5.15
2019-01-14T16:14:35.166Z,5.03
2019-01-14T16:17:02.655Z,4.74
2019-01-14T16:19:30.102Z,4.61
2019-01-14T16:21:57.558Z,4.78
2019-01-14T16:24:25.223Z,4.91
2019-01-14T16:26:52.649Z,4.73
2019-01-14T16:29:20.121Z,4.77
2019-01-14T16:31:47.561Z,4.62
2019-01-14T16:34:14.998Z,4.58
2019-01-14T16:36:43.365Z,4.80
2019-01-14T16:39:10.917Z,4.73
2019-01-14T16:41:38.354Z,4.55
2019-01-14T16:44:05.855Z,4.78
2019-01-14T16:46:34.170Z,4.60
2019-01-14T16:49:01.618Z,4.80
2019-01-14T16:51:29.075Z,4.73
2019-01-14T16:53:56.511Z,4.53
2019-01-14T16:56:23.981Z,4.36
2019-01-14T16:58:51.448Z,4.46
2019-01-14T17:01:18.874Z,4.56
2019-01-14T17:03:46.326Z,4.46
2019-01-14T17:06:13.792Z,4.24
2019-01-14T17:08:41.212Z,4.10
2019-01-14T17:11:08.651Z,4.33
2019-01-14T17:13:36.114Z,4.22
2019-01-14T17:16:03.563Z,4.32
2019-01-14T17:18:31.003Z,4.17
2019-01-14T17:20:58.434Z,4.20
2019-01-14T17:23:25.898Z,3.99
2019-01-14T17:25:53.357Z,4.16
2019-01-14T17:28:20.774Z,3.96
2019-01-14T17:30:48.198Z,4.03
2019-01-14T17:33:15.640Z,3.90
2019-01-14T17:35:43.102Z,4.07
2019-01-14T17:38:10.557Z,3.94
2019-01-14T17:40:37.984Z,3.92
2019-01-14T17:43:05.449Z,3.90
2019-01-14T17:45:32.926Z,3.99
2019-01-14T17:48:00.359Z,3.79
2019-01-14T17:50:27.771Z,4.04
2019-01-14T17:52:56.084Z,3.82
2019-01-14T17:55:23.515Z,3.66
2019-01-14T17:57:50.977Z,3.79
2019-01-14T18:00:18.437Z,3.99
2019-01-14T18:02:45.844Z,3.85
2019-01-14T18:05:13.260Z,3.91
2019-01-14T18:07:40.710Z,3.91
2019-01-14T18:10:08.188Z,3.82
2019-01-14T18:12:35.595Z,3.63
2019-01-14T18:15:03.032Z,3.78
2019-01-14T18:17:30.474Z,3.69
2019-01-14T18:19:57.903Z,3.51
2019-01-14T18:22:26.265Z,3.59
2019-01-14T18:24:53.704Z,3.59
2019-01-14T18:27:21.171Z,3.82
2019-01-14T18:29:48.613Z,3.82
2019-01-14T18:32:16.075Z,3.96
2019-01-14T18:34:43.548Z,3.92
2019-01-14T18:37:10.965Z,3.82
2019-01-14T18:39:38.457Z,3.82
2019-01-14T18:42:05.913Z,3.87
2019-01-14T18:44:33.355Z,3.75
2019-01-14T18:47:02.184Z,3.79
2019-01-14T18:49:29.731Z,3.75
2019-01-14T18:51:57.171Z,3.72
2019-01-14T18:54:24.594Z,3.71
2019-01-14T18:56:52.057Z,3.96
2019-01-14T18:59:19.494Z,3.84
2019-01-14T19:01:47.767Z,3.77
2019-01-14T19:04:15.191Z,3.63
2019-01-14T19:06:42.664Z,3.68
2019-01-14T19:09:10.113Z,3.83
2019-01-14T19:11:37.546Z,4.06
2019-01-14T19:14:05.017Z,4.10
2019-01-14T19:16:32.504Z,4.12
2019-01-14T19:18:59.930Z,4.19
2019-01-14T19:21:27.383Z,4.02
2019-01-14T19:23:55.653Z,3.90
2019-01-14T19:26:23.178Z,3.96
2019-01-14T19:28:51.173Z,4.12
2019-01-14T19:31:18.619Z,4.17
2019-01-14T19:33:46.062Z,4.05
2019-01-14T19:36:13.553Z,4.05
2019-01-14T19:38:40.992Z,4.11
2019-01-14T19:41:08.425Z,4.07
2019-01-14T19:43:35.877Z,4.24
2019-01-14T19:46:03.331Z,4.12
2019-01-14T19:48:30.815Z,4.04
2019-01-14T19:50:58.232Z,4.24
2019-01-14T19:53:25.681Z,4.34
2019-01-14T19:55:53.121Z,4.32
2019-01-14T19:58:20.591Z,4.43
2019-01-14T20:00:48.010Z,4.32
2019-01-14T20:03:17.338Z,4.52
2019-01-14T20:05:44.865Z,4.17
2019-01-14T20:08:12.311Z,4.12
2019-01-14T20:10:40.652Z,4.14
2019-01-14T20:13:08.552Z,4.09
2019-01-14T20:15:35.981Z,4.02
2019-01-14T20:18:03.446Z,4.13
2019-01-14T20:20:30.904Z,4.15
2019-01-14T20:22:58.585Z,4.21
2019-01-14T20:25:25.837Z,4.30
2019-01-14T20:27:53.340Z,3.91
2019-01-14T20:30:20.779Z,4.08
2019-01-14T20:32:48.234Z,3.83
2019-01-14T20:35:16.473Z,3.68
2019-01-14T20:37:43.923Z,3.84
2019-01-14T20:40:11.403Z,3.72
2019-01-14T20:42:38.879Z,3.70
2019-01-14T20:45:06.349Z,3.86
2019-01-14T20:47:33.813Z,3.73
2019-01-14T20:50:01.988Z,3.80
2019-01-14T20:52:29.524Z,3.85
2019-01-14T20:54:57.651Z,4.02
2019-01-14T20:57:25.084Z,3.56
2019-01-14T20:59:52.518Z,3.91
2019-01-14T21:02:19.969Z,3.46
2019-01-14T21:04:47.422Z,3.50
2019-01-14T21:07:14.836Z,3.65
2019-01-14T21:09:42.784Z,3.63
2019-01-14T21:12:10.219Z,3.44
2019-01-14T21:14:37.678Z,3.40
2019-01-14T21:17:05.113Z,3.52
2019-01-14T21:19:32.550Z,3.60
2019-01-14T21:22:00.010Z,3.75
2019-01-14T21:24:27.988Z,3.91
2019-01-14T21:26:55.489Z,3.68
2019-01-14T21:29:25.994Z,3.34
2019-01-14T21:31:50.432Z,3.49
2019-01-14T21:34:17.898Z,3.27
2019-01-14T21:36:45.425Z,3.22
2019-01-14T21:39:12.893Z,3.59
2019-01-14T21:41:40.314Z,3.45
2019-01-14T21:44:07.837Z,3.12
2019-01-14T21:46:35.744Z,3.58
2019-01-14T21:49:03.393Z,3.58
2019-01-14T21:51:31.824Z,3.33
2019-01-14T21:53:59.495Z,3.34
2019-01-14T21:56:26.949Z,3.44
2019-01-14T21:58:54.471Z,3.38
2019-01-14T22:01:22.367Z,3.47
2019-01-14T22:03:50.814Z,3.41
2019-01-14T22:06:18.271Z,3.30
2019-01-14T22:08:45.848Z,3.31
2019-01-14T22:11:13.366Z,3.19
2019-01-14T22:13:40.800Z,3.40
2019-01-14T22:16:08.307Z,3.48
2019-01-14T22:18:35.768Z,3.38
2019-01-14T22:21:03.313Z,3.37
2019-01-14T22:23:30.811Z,3.37
2019-01-14T22:25:58.733Z,3.20
2019-01-14T22:28:26.203Z,3.22
2019-01-14T22:30:53.683Z,3.07
2019-01-14T22:33:21.183Z,3.04
2019-01-14T22:35:48.904Z,2.95
2019-01-14T22:38:16.352Z,2.85
2019-01-14T22:40:43.960Z,3.21
2019-01-14T22:43:11.502Z,3.38
2019-01-14T22:45:38.995Z,3.38
2019-01-14T22:48:06.476Z,3.27
2019-01-14T22:50:33.902Z,3.49
2019-01-14T22:53:01.451Z,3.20
2019-01-14T22:55:28.910Z,3.61
2019-01-14T22:57:56.609Z,3.31
2019-01-14T23:00:26.108Z,3.54
2019-01-14T23:02:53.566Z,3.43
2019-01-14T23:05:21.062Z,3.69
2019-01-14T23:07:48.491Z,3.49
2019-01-14T23:10:15.949Z,3.32
2019-01-14T23:12:43.377Z,3.45
2019-01-14T23:15:10.841Z,3.18
2019-01-14T23:17:38.314Z,3.22
2019-01-14T23:20:05.784Z,3.20
2019-01-14T23:22:33.219Z,2.91
2019-01-14T23:25:00.674Z,2.80
2019-01-14T23:27:28.992Z,2.89
2019-01-14T23:29:56.495Z,2.92
2019-01-14T23:32:24.059Z,3.12
2019-01-14T23:34:51.518Z,2.81
2019-01-14T23:37:18.968Z,3.07
2019-01-14T23:39:46.398Z,2.98
2019-01-14T23:42:13.815Z,2.88
2019-01-14T23:44:41.276Z,2.86
2019-01-14T23:47:08.729Z,3.00
2019-01-14T23:49:36.269Z,2.90
2019-01-14T23:52:03.770Z,3.03
2019-01-14T23:54:36.908Z,2.73
2019-01-14T23:56:59.816Z,2.74
2019-01-14T23:59:27.261Z,2.79
